createdAt,value
2022-11-28T00:01:43.266Z,2.38
2022-11-28T00:04:12.277Z,2.22
2022-11-28T00:06:46.892Z,2.10
2022-11-28T00:09:16.773Z,2.13
2022-11-28T00:11:46.569Z,2.16
2022-11-28T00:14:16.248Z,1.99
2022-11-28T00:16:45.217Z,1.95
2022-11-28T00:19:13.825Z,1.93
2022-11-28T00:21:42.174Z,1.90
2022-11-28T00:24:10.124Z,2.00
2022-11-28T00:26:41.728Z,1.99
2022-11-28T00:29:11.203Z,1.98
2022-11-28T00:31:42.952Z,1.89
2022-11-28T00:34:14.108Z,1.92
2022-11-28T00:36:46.371Z,1.86
2022-11-28T00:39:16.015Z,1.86
2022-11-28T00:41:45.235Z,1.71
2022-11-28T00:44:14.348Z,1.60
2022-11-28T00:46:43.056Z,1.53
2022-11-28T00:49:11.145Z,1.49
2022-11-28T00:51:39.236Z,1.52
2022-11-28T00:54:07.533Z,1.60
2022-11-28T00:56:40.003Z,1.62
2022-11-28T00:59:08.292Z,1.63
2022-11-28T01:01:41.696Z,1.69
2022-11-28T01:04:14.815Z,1.70
2022-11-28T01:06:48.974Z,1.67
2022-11-28T01:09:21.202Z,1.56
2022-11-28T01:11:52.189Z,1.50
2022-11-28T01:14:23.622Z,1.47
2022-11-28T01:16:51.741Z,1.49
2022-11-28T01:19:19.912Z,1.47
2022-11-28T01:21:47.969Z,1.49
2022-11-28T01:24:17.757Z,1.51
2022-11-28T01:26:46.016Z,1.45
2022-11-28T01:29:14.130Z,1.47
2022-11-28T01:31:42.315Z,1.52
2022-11-28T01:34:10.207Z,1.52
2022-11-28T01:36:38.081Z,1.51
2022-11-28T01:39:06.121Z,1.53
2022-11-28T01:41:34.124Z,1.57
2022-11-28T01:44:13.338Z,1.54
2022-11-28T01:46:41.848Z,1.49
2022-11-28T01:49:37.715Z,1.39
2022-11-28T01:52:12.966Z,1.38
2022-11-28T01:54:44.259Z,1.45
2022-11-28T01:57:19.634Z,1.50
2022-11-28T01:59:58.295Z,1.48
2022-11-28T02:03:15.991Z,1.41
2022-11-28T02:05:43.985Z,1.48
2022-11-28T02:08:11.854Z,1.46
2022-11-28T02:11:25.488Z,1.44
2022-11-28T02:14:10.699Z,1.40
2022-11-28T02:16:57.973Z,1.45
2022-11-28T02:19:52.244Z,1.44
2022-11-28T02:22:33.159Z,1.45
2022-11-28T02:25:18.361Z,1.46
2022-11-28T02:28:29.668Z,1.43
2022-11-28T02:31:38.245Z,1.34
2022-11-28T02:34:28.149Z,1.35
2022-11-28T02:37:13.041Z,1.43
2022-11-28T02:39:52.170Z,1.45
2022-11-28T02:42:43.359Z,1.37
2022-11-28T02:45:28.873Z,1.37
2022-11-28T02:48:13.230Z,1.43
2022-11-28T02:50:53.138Z,1.41
2022-11-28T02:53:26.017Z,1.38
2022-11-28T02:55:55.059Z,1.33
2022-11-28T02:58:22.903Z,1.27
2022-11-28T03:00:51.837Z,1.31
2022-11-28T03:04:03.951Z,1.31
2022-11-28T03:07:02.966Z,1.23
2022-11-28T03:09:57.097Z,1.19
2022-11-28T03:12:49.829Z,1.13
2022-11-28T03:15:23.902Z,1.14
2022-11-28T03:18:03.089Z,1.05
2022-11-28T03:20:56.736Z,1.05
2022-11-28T03:23:44.779Z,1.03
2022-11-28T03:26:26.339Z,0.99
2022-11-28T03:29:09.234Z,0.98
2022-11-28T03:31:45.678Z,1.01
2022-11-28T03:34:20.364Z,0.97
2022-11-28T03:36:57.627Z,0.95
2022-11-28T03:39:33.521Z,0.85
2022-11-28T03:42:10.715Z,0.82
2022-11-28T03:44:54.662Z,0.81
2022-11-28T03:47:30.173Z,0.80
2022-11-28T03:50:02.860Z,0.78
2022-11-28T03:52:43.515Z,0.65
2022-11-28T03:55:21.867Z,0.65
2022-11-28T03:58:27.119Z,0.67
2022-11-28T04:01:18.007Z,0.67
2022-11-28T04:03:56.569Z,0.74
2022-11-28T04:06:52.699Z,0.74
2022-11-28T04:09:46.918Z,0.71
2022-11-28T04:12:32.768Z,0.72
2022-11-28T04:15:09.891Z,0.74
2022-11-28T04:18:06.971Z,0.82
2022-11-28T04:20:41.824Z,0.79
2022-11-28T04:23:15.124Z,0.81
2022-11-28T04:26:03.218Z,0.87
2022-11-28T04:28:34.504Z,0.84
2022-11-28T04:31:07.322Z,0.79
2022-11-28T04:33:39.416Z,0.74
2022-11-28T04:36:09.978Z,0.69
2022-11-28T04:38:41.069Z,0.72
2022-11-28T04:41:23.448Z,0.72
2022-11-28T04:44:00.112Z,0.81
2022-11-28T04:46:37.712Z,0.80
2022-11-28T04:49:06.245Z,0.81
2022-11-28T04:52:06.575Z,0.76
2022-11-28T04:54:59.895Z,0.75
2022-11-28T04:57:35.635Z,0.75
2022-11-28T05:00:12.797Z,0.72
2022-11-28T05:02:43.412Z,0.73
2022-11-28T05:05:21.576Z,0.66
2022-11-28T05:07:49.548Z,0.62
2022-11-28T05:10:18.347Z,0.61
2022-11-28T05:12:46.310Z,0.62
2022-11-28T05:15:18.904Z,0.65
2022-11-28T05:17:47.226Z,0.61
2022-11-28T05:20:15.230Z,0.59
2022-11-28T05:22:43.192Z,0.57
2022-11-28T05:25:11.193Z,0.61
2022-11-28T05:27:39.167Z,0.65
2022-11-28T05:30:10.060Z,0.69
2022-11-28T05:32:38.145Z,0.67
2022-11-28T05:35:06.854Z,0.66
2022-11-28T05:37:34.830Z,0.69
2022-11-28T05:40:03.477Z,0.71
2022-11-28T05:42:36.312Z,0.72
2022-11-28T05:45:05.501Z,0.69
2022-11-28T05:47:33.865Z,0.65
2022-11-28T05:50:01.788Z,0.62
2022-11-28T05:52:32.049Z,0.61
2022-11-28T05:55:00.366Z,0.60
2022-11-28T05:57:30.023Z,0.58
2022-11-28T05:59:58.046Z,0.58
2022-11-28T06:02:26.143Z,0.56
2022-11-28T06:04:54.271Z,0.58
2022-11-28T06:07:22.303Z,0.52
2022-11-28T06:09:50.189Z,0.56
2022-11-28T06:12:18.093Z,0.60
2022-11-28T06:14:45.980Z,0.62
2022-11-28T06:17:13.845Z,0.66
2022-11-28T06:19:41.968Z,0.71
2022-11-28T06:22:10.564Z,0.75
2022-11-28T06:24:38.490Z,0.72
2022-11-28T06:27:06.381Z,0.74
2022-11-28T06:29:34.452Z,0.72
2022-11-28T06:32:02.581Z,0.72
2022-11-28T06:34:32.292Z,0.75
2022-11-28T06:37:00.884Z,0.70
2022-11-28T06:39:28.775Z,0.75
2022-11-28T06:41:56.650Z,0.74
2022-11-28T06:44:24.510Z,0.68
2022-11-28T06:46:54.472Z,0.74
2022-11-28T06:49:22.569Z,0.77
2022-11-28T06:51:50.659Z,0.79
2022-11-28T06:54:18.568Z,0.82
2022-11-28T06:56:46.407Z,0.85
2022-11-28T06:59:14.321Z,0.87
2022-11-28T07:01:42.222Z,0.94
2022-11-28T07:04:10.267Z,0.97
2022-11-28T07:06:38.260Z,0.97
2022-11-28T07:09:06.137Z,1.09
2022-11-28T07:11:34.083Z,1.12
2022-11-28T07:14:02.746Z,1.07
2022-11-28T07:16:33.390Z,1.13
2022-11-28T07:19:01.661Z,1.21
2022-11-28T07:21:30.161Z,1.23
2022-11-28T07:23:59.570Z,1.30
2022-11-28T07:26:27.656Z,1.32
2022-11-28T07:28:58.071Z,1.36
2022-11-28T07:31:29.446Z,1.38
2022-11-28T07:33:59.547Z,1.41
2022-11-28T07:36:29.186Z,1.43
2022-11-28T07:39:00.191Z,1.43
2022-11-28T07:41:28.977Z,1.48
2022-11-28T07:44:01.729Z,1.48
2022-11-28T07:46:31.657Z,1.56
2022-11-28T07:49:00.751Z,1.60
2022-11-28T07:51:32.973Z,1.62
2022-11-28T07:54:03.466Z,1.66
2022-11-28T07:57:04.713Z,1.62
2022-11-28T07:59:24.160Z,1.66
2022-11-28T08:01:53.709Z,1.79
2022-11-28T08:04:23.028Z,1.85
2022-11-28T08:06:51.164Z,1.83
2022-11-28T08:09:19.401Z,1.92
2022-11-28T08:11:47.378Z,1.89
2022-11-28T08:14:15.367Z,1.94
2022-11-28T08:16:45.221Z,1.94
2022-11-28T08:19:13.559Z,1.97
2022-11-28T08:21:42.548Z,1.93
2022-11-28T08:24:11.105Z,2.07
2022-11-28T08:26:39.299Z,2.20
2022-11-28T08:29:07.186Z,2.12
2022-11-28T08:31:38.511Z,2.21
2022-11-28T08:34:09.750Z,2.31
2022-11-28T08:36:37.836Z,2.45
2022-11-28T08:39:23.505Z,2.47
2022-11-28T08:41:57.207Z,2.55
2022-11-28T08:44:27.235Z,2.58
2022-11-28T08:46:55.221Z,2.62
2022-11-28T08:49:23.100Z,2.68
2022-11-28T08:51:50.965Z,2.75
2022-11-28T08:54:18.952Z,2.80
2022-11-28T08:56:48.429Z,2.84
2022-11-28T08:59:16.322Z,2.88
2022-11-28T09:01:44.322Z,2.91
2022-11-28T09:04:12.440Z,2.94
2022-11-28T09:06:41.031Z,2.91
2022-11-28T09:09:09.882Z,2.90
2022-11-28T09:11:38.320Z,3.03
2022-11-28T09:14:06.937Z,2.96
2022-11-28T09:16:35.014Z,2.97
2022-11-28T09:19:03.164Z,3.06
2022-11-28T09:21:31.029Z,3.11
2022-11-28T09:23:58.893Z,3.09
2022-11-28T09:26:26.879Z,3.07
2022-11-28T09:28:54.768Z,3.14
2022-11-28T09:31:22.774Z,3.20
2022-11-28T09:33:51.045Z,3.30
2022-11-28T09:36:22.054Z,3.35
2022-11-28T09:38:50.992Z,3.28
2022-11-28T09:41:28.153Z,3.30
2022-11-28T09:44:53.046Z,3.33
2022-11-28T09:47:29.374Z,3.47
2022-11-28T09:50:20.791Z,3.60
2022-11-28T09:53:23.256Z,3.40
2022-11-28T09:55:58.833Z,3.45
2022-11-28T09:58:51.762Z,3.38
2022-11-28T10:01:41.785Z,3.54
2022-11-28T10:04:23.364Z,3.58
2022-11-28T10:07:26.097Z,3.60
2022-11-28T10:10:25.610Z,3.64
2022-11-28T10:13:41.339Z,3.62
2022-11-28T10:16:47.785Z,3.64
2022-11-28T10:19:52.379Z,3.72
2022-11-28T10:22:18.888Z,3.77
2022-11-28T10:25:03.849Z,3.86
2022-11-28T10:27:35.939Z,4.06
2022-11-28T10:30:33.552Z,4.07
2022-11-28T10:33:41.924Z,4.05
2022-11-28T10:36:23.472Z,3.94
2022-11-28T10:38:51.485Z,3.75
2022-11-28T10:41:36.864Z,3.83
2022-11-28T10:44:04.815Z,4.07
2022-11-28T10:46:50.760Z,4.19
2022-11-28T10:49:56.743Z,4.13
2022-11-28T10:52:32.255Z,4.18
2022-11-28T10:55:37.889Z,4.04
2022-11-28T10:58:50.341Z,4.18
2022-11-28T11:01:18.446Z,4.12
2022-11-28T11:03:47.753Z,4.20
2022-11-28T11:06:15.636Z,4.17
2022-11-28T11:08:45.379Z,4.14
2022-11-28T11:11:42.808Z,4.26
2022-11-28T11:14:11.810Z,4.24
2022-11-28T11:16:59.617Z,4.32
2022-11-28T11:19:37.248Z,4.34
2022-11-28T11:22:28.417Z,4.32
2022-11-28T11:25:17.084Z,4.49
2022-11-28T11:28:02.210Z,4.62
2022-11-28T11:30:34.763Z,4.68
2022-11-28T11:33:08.110Z,4.89
2022-11-28T11:35:44.617Z,5.21
2022-11-28T11:38:21.918Z,4.99
2022-11-28T11:40:51.385Z,5.28
2022-11-28T11:43:28.981Z,5.51
2022-11-28T11:46:16.417Z,5.49
2022-11-28T11:48:47.973Z,5.56
2022-11-28T11:51:35.095Z,5.82
2022-11-28T11:54:14.230Z,6.10
2022-11-28T11:56:56.740Z,6.09
2022-11-28T11:59:43.198Z,6.02
2022-11-28T12:02:47.359Z,5.58
2022-11-28T12:05:20.136Z,5.87
2022-11-28T12:07:59.636Z,5.95
2022-11-28T12:10:34.253Z,5.88
2022-11-28T12:13:02.761Z,5.92
2022-11-28T12:16:00.820Z,5.86
2022-11-28T12:19:22.465Z,5.96
2022-11-28T12:22:30.580Z,5.68
2022-11-28T12:25:14.329Z,5.72
2022-11-28T12:27:55.606Z,5.56
2022-11-28T12:30:54.684Z,5.55
2022-11-28T12:34:06.872Z,5.45
2022-11-28T12:37:21.502Z,5.55
2022-11-28T12:40:09.006Z,5.64
2022-11-28T12:43:12.776Z,5.87
2022-11-28T12:46:15.114Z,5.76
2022-11-28T12:49:01.534Z,5.67
2022-11-28T12:52:29.688Z,5.25
2022-11-28T12:55:28.691Z,5.03
2022-11-28T12:58:22.497Z,4.95
2022-11-28T13:01:06.009Z,5.12
2022-11-28T13:03:59.807Z,5.31
2022-11-28T13:06:59.047Z,5.28
2022-11-28T13:09:35.441Z,5.50
2022-11-28T13:12:53.787Z,5.35
2022-11-28T13:15:59.778Z,5.35
2022-11-28T13:18:46.504Z,5.28
2022-11-28T13:21:41.962Z,5.13
2022-11-28T13:24:38.954Z,4.98
2022-11-28T13:27:36.337Z,5.00
2022-11-28T13:30:26.786Z,5.23
2022-11-28T13:33:03.711Z,5.27
2022-11-28T13:35:32.720Z,5.13
2022-11-28T13:41:43.798Z,5.62
2022-11-28T13:44:31.563Z,5.72
2022-11-28T13:47:21.682Z,5.66
2022-11-28T13:49:49.654Z,5.56
2022-11-28T13:52:17.532Z,5.25
2022-11-28T13:54:54.417Z,5.13
2022-11-28T13:57:37.009Z,5.19
2022-11-28T14:00:24.086Z,5.16
2022-11-28T14:02:59.664Z,5.21
2022-11-28T14:05:39.222Z,5.30
2022-11-28T14:08:07.724Z,4.98
2022-11-28T14:11:27.457Z,4.93
2022-11-28T14:14:33.134Z,5.00
2022-11-28T14:17:41.727Z,4.82
2022-11-28T14:20:48.798Z,4.82
2022-11-28T14:23:47.249Z,4.73
2022-11-28T14:26:43.851Z,4.53
2022-11-28T14:29:36.806Z,4.36
2022-11-28T14:32:29.060Z,4.39
2022-11-28T14:34:55.388Z,4.24
2022-11-28T14:37:30.058Z,4.23
2022-11-28T14:39:58.320Z,4.12
2022-11-28T14:42:58.235Z,3.99
2022-11-28T14:45:41.854Z,3.85
2022-11-28T14:48:22.342Z,3.73
2022-11-28T14:51:00.653Z,3.70
2022-11-28T14:53:46.954Z,3.71
2022-11-28T14:56:15.665Z,3.69
2022-11-28T14:58:49.627Z,3.64
2022-11-28T15:01:41.318Z,3.56
2022-11-28T15:04:45.324Z,3.60
2022-11-28T15:07:29.399Z,3.44
2022-11-28T15:10:57.496Z,3.40
2022-11-28T15:13:32.982Z,3.34
2022-11-28T15:16:06.349Z,3.27
2022-11-28T15:18:35.497Z,3.22
2022-11-28T15:21:11.682Z,3.14
2022-11-28T15:23:39.737Z,3.03
2022-11-28T15:26:20.229Z,3.04
2022-11-28T15:28:48.510Z,3.03
2022-11-28T15:31:23.666Z,2.98
2022-11-28T15:33:51.848Z,2.90
2022-11-28T15:36:29.470Z,2.82
2022-11-28T15:38:57.619Z,2.79
2022-11-28T15:41:27.928Z,2.85
2022-11-28T15:43:56.803Z,2.87
2022-11-28T15:46:34.691Z,2.86
2022-11-28T15:49:05.232Z,2.83
2022-11-28T15:51:38.066Z,2.83
2022-11-28T15:54:25.766Z,2.87
2022-11-28T15:56:59.607Z,2.86
2022-11-28T15:59:28.672Z,2.89
2022-11-28T16:02:11.926Z,2.93
2022-11-28T16:04:40.799Z,2.90
2022-11-28T16:07:16.030Z,2.93
2022-11-28T16:09:58.368Z,2.87
2022-11-28T16:12:28.489Z,2.71
2022-11-28T16:15:01.877Z,2.81
2022-11-28T16:17:33.977Z,2.84
2022-11-28T16:20:03.735Z,2.90
2022-11-28T16:22:37.864Z,2.92
2022-11-28T16:25:22.914Z,2.82
2022-11-28T16:27:57.258Z,2.75
2022-11-28T16:30:38.992Z,2.88
2022-11-28T16:33:35.538Z,2.91
2022-11-28T16:36:16.049Z,2.98
2022-11-28T16:38:44.946Z,2.98
2022-11-28T16:41:21.732Z,2.94
2022-11-28T16:43:56.261Z,2.95
2022-11-28T16:46:28.868Z,2.95
2022-11-28T16:48:58.856Z,2.95
2022-11-28T16:51:30.067Z,2.88
2022-11-28T16:54:00.758Z,2.88
2022-11-28T16:56:29.001Z,2.93
2022-11-28T16:59:19.124Z,3.01
2022-11-28T17:01:52.159Z,3.01
2022-11-28T17:04:29.533Z,2.98
2022-11-28T17:07:05.267Z,2.95
2022-11-28T17:09:34.000Z,2.91
2022-11-28T17:12:22.402Z,2.95
2022-11-28T17:14:50.374Z,2.97
2022-11-28T17:17:20.574Z,2.92
2022-11-28T17:19:49.573Z,2.93
2022-11-28T17:22:38.896Z,2.97
2022-11-28T17:25:19.002Z,2.97
2022-11-28T17:27:48.222Z,2.99
2022-11-28T17:30:19.273Z,3.04
2022-11-28T17:32:47.991Z,3.02
2022-11-28T17:35:22.924Z,3.05
2022-11-28T17:37:51.276Z,3.06
2022-11-28T17:40:34.197Z,3.08
2022-11-28T17:43:03.701Z,3.13
2022-11-28T17:45:35.381Z,3.10
2022-11-28T17:48:03.386Z,3.15
2022-11-28T17:50:31.754Z,3.22
2022-11-28T17:52:59.707Z,3.16
2022-11-28T17:55:29.176Z,3.15
2022-11-28T17:57:57.179Z,3.19
2022-11-28T18:00:25.645Z,3.17
2022-11-28T18:02:55.056Z,3.24
2022-11-28T18:05:23.435Z,3.28
2022-11-28T18:07:51.603Z,3.32
2022-11-28T18:10:19.530Z,3.32
2022-11-28T18:12:47.600Z,3.41
2022-11-28T18:15:15.576Z,3.39
2022-11-28T18:17:43.535Z,3.45
2022-11-28T18:20:12.096Z,3.53
2022-11-28T18:22:40.201Z,3.60
2022-11-28T18:25:09.283Z,3.53
2022-11-28T18:27:37.529Z,3.57
2022-11-28T18:30:06.853Z,3.55
2022-11-28T18:32:35.076Z,3.52
2022-11-28T18:35:03.537Z,3.42
2022-11-28T18:37:31.534Z,3.50
2022-11-28T18:39:59.485Z,3.50
2022-11-28T18:42:27.721Z,3.62
2022-11-28T18:44:55.632Z,3.65
2022-11-28T18:47:25.961Z,3.57
2022-11-28T18:49:54.424Z,3.62
2022-11-28T18:52:22.371Z,3.53
2022-11-28T18:54:50.505Z,3.62
2022-11-28T18:57:18.548Z,3.64
2022-11-28T18:59:54.382Z,3.67
2022-11-28T19:02:23.684Z,3.65
2022-11-28T19:04:52.709Z,3.52
2022-11-28T19:07:21.518Z,3.57
2022-11-28T19:09:49.601Z,3.58
2022-11-28T19:12:19.811Z,3.63
2022-11-28T19:14:47.783Z,3.71
2022-11-28T19:17:16.069Z,3.85
2022-11-28T19:19:44.970Z,3.85
2022-11-28T19:22:13.204Z,3.79
2022-11-28T19:24:41.334Z,3.70
2022-11-28T19:27:14.087Z,3.85
2022-11-28T19:29:43.074Z,3.93
2022-11-28T19:32:12.482Z,3.79
2022-11-28T19:34:40.638Z,3.72
2022-11-28T19:37:08.644Z,3.64
2022-11-28T19:39:37.136Z,3.72
2022-11-28T19:42:05.361Z,3.75
2022-11-28T19:44:33.762Z,3.68
2022-11-28T19:47:01.822Z,3.60
2022-11-28T19:49:32.339Z,3.62
2022-11-28T19:52:00.958Z,3.75
2022-11-28T19:54:29.171Z,3.82
2022-11-28T19:56:58.454Z,3.74
2022-11-28T19:59:27.620Z,3.60
2022-11-28T20:01:55.664Z,3.70
2022-11-28T20:04:23.652Z,3.63
2022-11-28T20:06:51.870Z,3.57
2022-11-28T20:09:19.919Z,3.73
2022-11-28T20:11:48.605Z,3.81
2022-11-28T20:14:19.248Z,3.67
2022-11-28T20:16:47.417Z,3.77
2022-11-28T20:19:17.731Z,3.70
2022-11-28T20:21:46.589Z,3.76
2022-11-28T20:24:16.185Z,3.67
2022-11-28T20:26:45.947Z,3.72
2022-11-28T20:33:06.269Z,3.56
2022-11-28T20:35:57.001Z,3.51
2022-11-28T20:38:29.146Z,3.49
2022-11-28T20:41:01.182Z,3.52
2022-11-28T20:43:31.837Z,3.54
2022-11-28T20:46:09.894Z,3.46
2022-11-28T20:48:38.898Z,3.56
2022-11-28T20:51:17.494Z,3.62
2022-11-28T20:53:46.552Z,3.58
2022-11-28T20:56:19.011Z,3.60
2022-11-28T20:58:47.452Z,3.59
2022-11-28T21:01:21.727Z,3.56
2022-11-28T21:03:50.989Z,3.44
2022-11-28T21:06:20.704Z,3.34
2022-11-28T21:08:48.895Z,3.47
2022-11-28T21:11:50.500Z,3.38
2022-11-28T21:14:11.915Z,3.28
2022-11-28T21:16:39.907Z,3.25
2022-11-28T21:19:09.538Z,3.21
2022-11-28T21:21:39.754Z,3.28
2022-11-28T21:24:12.149Z,3.33
2022-11-28T21:26:46.683Z,3.17
2022-11-28T21:29:19.782Z,3.22
2022-11-28T21:31:48.076Z,3.20
2022-11-28T21:34:16.792Z,3.25
2022-11-28T21:36:45.681Z,3.24
2022-11-28T21:39:18.798Z,3.22
2022-11-28T21:41:47.279Z,3.23
2022-11-28T21:44:15.280Z,3.31
2022-11-28T21:46:43.718Z,3.26
2022-11-28T21:49:13.982Z,3.28
2022-11-28T21:51:46.765Z,3.28
2022-11-28T21:54:15.461Z,3.23
2022-11-28T21:56:44.875Z,3.22
2022-11-28T21:59:12.930Z,3.24
2022-11-28T22:01:41.199Z,3.30
2022-11-28T22:04:11.057Z,3.36
2022-11-28T22:06:40.280Z,3.38
2022-11-28T22:09:09.857Z,3.27
2022-11-28T22:11:39.711Z,3.34
2022-11-28T22:14:08.247Z,3.43
2022-11-28T22:16:36.873Z,3.57
2022-11-28T22:19:05.219Z,3.51
2022-11-28T22:21:54.534Z,3.53
2022-11-28T22:24:24.771Z,3.50
2022-11-28T22:26:54.286Z,3.52
2022-11-28T22:29:22.273Z,3.54
2022-11-28T22:31:50.543Z,3.58
2022-11-28T22:34:19.525Z,3.62
2022-11-28T22:36:47.511Z,3.56
2022-11-28T22:39:15.676Z,3.50
2022-11-28T22:41:43.687Z,3.49
2022-11-28T22:44:11.917Z,3.57
2022-11-28T22:46:39.913Z,3.68
2022-11-28T22:49:10.492Z,3.71
2022-11-28T22:51:40.087Z,3.75
2022-11-28T22:54:12.434Z,3.77
2022-11-28T22:56:41.066Z,3.76
2022-11-28T22:59:14.565Z,3.61
2022-11-28T23:01:43.599Z,3.59
2022-11-28T23:04:12.362Z,3.70
2022-11-28T23:06:40.601Z,3.65
2022-11-28T23:09:12.973Z,3.73
2022-11-28T23:11:41.196Z,3.70
2022-11-28T23:14:13.259Z,3.87
2022-11-28T23:16:43.728Z,3.82
2022-11-28T23:19:15.723Z,3.87
2022-11-28T23:21:47.117Z,3.92
2022-11-28T23:24:19.887Z,3.97
2022-11-28T23:26:48.888Z,3.99
2022-11-28T23:29:17.685Z,3.78
2022-11-28T23:31:47.535Z,3.85
2022-11-28T23:34:16.223Z,3.96
2022-11-28T23:36:46.913Z,3.99
2022-11-28T23:39:18.653Z,3.94
2022-11-28T23:41:47.409Z,3.81
2022-11-28T23:44:17.796Z,3.75
2022-11-28T23:46:47.255Z,3.89
2022-11-28T23:49:15.615Z,3.97
2022-11-28T23:51:43.558Z,4.02
2022-11-28T23:54:12.810Z,3.93
2022-11-28T23:56:41.814Z,3.94
2022-11-28T23:59:12.277Z,3.93
